sensor_id;sensor_type;location;lat;lon;timestamp;P1;durP1;ratioP1;P2;durP2;ratioP2
5754;SDS011;2902;42.130;24.732;2023-03-01T00:01:23;3.27;;;3.07;;
5754;SDS011;2902;42.130;24.732;2023-03-01T00:03:51;3.30;;;3.10;;
5754;SDS011;2902;42.130;24.732;2023-03-01T00:06:20;3.37;;;3.17;;
5754;SDS011;2902;42.130;24.732;2023-03-01T00:08:47;3.20;;;3.10;;
5754;SDS011;2902;42.130;24.732;2023-03-01T00:11:16;3.00;;;2.90;;
5754;SDS011;2902;42.130;24.732;2023-03-01T00:13:44;3.10;;;3.00;;
5754;SDS011;2902;42.130;24.732;2023-03-01T00:16:12;3.40;;;3.23;;
5754;SDS011;2902;42.130;24.732;2023-03-01T00:18:40;3.20;;;3.10;;
5754;SDS011;2902;42.130;24.732;2023-03-01T00:21:07;3.13;;;3.03;;
5754;SDS011;2902;42.130;24.732;2023-03-01T00:23:35;3.10;;;3.00;;
5754;SDS011;2902;42.130;24.732;2023-03-01T00:26:05;2.67;;;2.57;;
5754;SDS011;2902;42.130;24.732;2023-03-01T00:28:32;3.07;;;2.97;;
5754;SDS011;2902;42.130;24.732;2023-03-01T00:31:02;3.43;;;3.23;;
5754;SDS011;2902;42.130;24.732;2023-03-01T00:33:29;3.73;;;3.43;;
5754;SDS011;2902;42.130;24.732;2023-03-01T00:35:57;3.70;;;3.50;;
5754;SDS011;2902;42.130;24.732;2023-03-01T00:38:24;3.50;;;3.40;;
5754;SDS011;2902;42.130;24.732;2023-03-01T00:40:52;3.70;;;3.53;;
5754;SDS011;2902;42.130;24.732;2023-03-01T00:43:19;4.50;;;4.17;;
5754;SDS011;2902;42.130;24.732;2023-03-01T00:45:45;3.47;;;3.27;;
5754;SDS011;2902;42.130;24.732;2023-03-01T00:48:12;3.90;;;3.70;;
5754;SDS011;2902;42.130;24.732;2023-03-01T00:50:39;3.40;;;3.20;;
5754;SDS011;2902;42.130;24.732;2023-03-01T00:53:05;3.60;;;3.50;;
5754;SDS011;2902;42.130;24.732;2023-03-01T00:55:32;3.47;;;3.37;;
5754;SDS011;2902;42.130;24.732;2023-03-01T00:58:00;3.80;;;3.70;;
5754;SDS011;2902;42.130;24.732;2023-03-01T01:00:27;2.90;;;2.70;;
5754;SDS011;2902;42.130;24.732;2023-03-01T01:02:54;3.27;;;3.17;;
5754;SDS011;2902;42.130;24.732;2023-03-01T01:05:21;3.30;;;3.10;;
5754;SDS011;2902;42.130;24.732;2023-03-01T01:07:47;2.73;;;2.63;;
5754;SDS011;2902;42.130;24.732;2023-03-01T01:10:14;3.23;;;3.13;;
5754;SDS011;2902;42.130;24.732;2023-03-01T01:12:42;3.57;;;3.37;;
5754;SDS011;2902;42.130;24.732;2023-03-01T01:15:11;3.20;;;3.03;;
5754;SDS011;2902;42.130;24.732;2023-03-01T01:17:39;3.13;;;2.93;;
5754;SDS011;2902;42.130;24.732;2023-03-01T01:20:06;3.33;;;3.13;;
5754;SDS011;2902;42.130;24.732;2023-03-01T01:22:34;2.53;;;2.43;;
5754;SDS011;2902;42.130;24.732;2023-03-01T01:25:00;3.23;;;3.13;;
5754;SDS011;2902;42.130;24.732;2023-03-01T01:27:27;3.00;;;2.90;;
5754;SDS011;2902;42.130;24.732;2023-03-01T01:29:55;2.80;;;2.70;;
5754;SDS011;2902;42.130;24.732;2023-03-01T01:32:23;2.70;;;2.60;;
5754;SDS011;2902;42.130;24.732;2023-03-01T01:34:50;3.03;;;2.93;;
5754;SDS011;2902;42.130;24.732;2023-03-01T01:37:16;3.23;;;3.13;;
5754;SDS011;2902;42.130;24.732;2023-03-01T01:39:43;2.57;;;2.47;;
5754;SDS011;2902;42.130;24.732;2023-03-01T01:42:11;3.10;;;2.90;;
5754;SDS011;2902;42.130;24.732;2023-03-01T01:44:42;3.07;;;2.97;;
5754;SDS011;2902;42.130;24.732;2023-03-01T01:47:12;3.00;;;2.90;;
5754;SDS011;2902;42.130;24.732;2023-03-01T01:49:44;2.50;;;2.40;;
5754;SDS011;2902;42.130;24.732;2023-03-01T01:52:13;2.97;;;2.87;;
5754;SDS011;2902;42.130;24.732;2023-03-01T01:54:46;3.00;;;2.90;;
5754;SDS011;2902;42.130;24.732;2023-03-01T01:57:19;2.80;;;2.70;;
5754;SDS011;2902;42.130;24.732;2023-03-01T01:59:48;3.30;;;3.10;;
5754;SDS011;2902;42.130;24.732;2023-03-01T02:02:18;3.33;;;3.23;;
5754;SDS011;2902;42.130;24.732;2023-03-01T02:04:47;3.70;;;3.60;;
5754;SDS011;2902;42.130;24.732;2023-03-01T02:07:15;3.13;;;3.03;;
5754;SDS011;2902;42.130;24.732;2023-03-01T02:09:44;3.60;;;3.50;;
5754;SDS011;2902;42.130;24.732;2023-03-01T02:12:13;3.20;;;3.10;;
5754;SDS011;2902;42.130;24.732;2023-03-01T02:14:40;4.00;;;3.80;;
5754;SDS011;2902;42.130;24.732;2023-03-01T02:17:07;4.03;;;3.83;;
5754;SDS011;2902;42.130;24.732;2023-03-01T02:19:38;4.10;;;3.90;;
5754;SDS011;2902;42.130;24.732;2023-03-01T02:22:20;4.10;;;3.90;;
5754;SDS011;2902;42.130;24.732;2023-03-01T02:24:53;3.60;;;3.40;;
5754;SDS011;2902;42.130;24.732;2023-03-01T02:27:33;4.63;;;4.33;;
5754;SDS011;2902;42.130;24.732;2023-03-01T02:30:08;4.33;;;4.10;;
5754;SDS011;2902;42.130;24.732;2023-03-01T02:32:37;5.07;;;4.77;;
5754;SDS011;2902;42.130;24.732;2023-03-01T02:35:06;5.90;;;5.60;;
5754;SDS011;2902;42.130;24.732;2023-03-01T02:37:35;5.53;;;5.10;;
5754;SDS011;2902;42.130;24.732;2023-03-01T02:40:03;5.20;;;4.90;;
5754;SDS011;2902;42.130;24.732;2023-03-01T02:42:39;5.70;;;5.33;;
5754;SDS011;2902;42.130;24.732;2023-03-01T02:45:14;5.40;;;5.20;;
5754;SDS011;2902;42.130;24.732;2023-03-01T02:47:40;5.83;;;5.53;;
5754;SDS011;2902;42.130;24.732;2023-03-01T02:50:12;6.17;;;5.87;;
5754;SDS011;2902;42.130;24.732;2023-03-01T02:52:51;6.50;;;6.00;;
5754;SDS011;2902;42.130;24.732;2023-03-01T02:55:27;6.30;;;5.90;;
5754;SDS011;2902;42.130;24.732;2023-03-01T02:57:54;6.30;;;5.90;;
5754;SDS011;2902;42.130;24.732;2023-03-01T03:00:24;6.07;;;5.77;;
5754;SDS011;2902;42.130;24.732;2023-03-01T03:02:56;5.60;;;5.33;;
5754;SDS011;2902;42.130;24.732;2023-03-01T03:05:24;5.63;;;5.33;;
5754;SDS011;2902;42.130;24.732;2023-03-01T03:07:53;6.50;;;6.03;;
5754;SDS011;2902;42.130;24.732;2023-03-01T03:10:21;6.27;;;5.97;;
5754;SDS011;2902;42.130;24.732;2023-03-01T03:12:49;6.37;;;6.07;;
5754;SDS011;2902;42.130;24.732;2023-03-01T03:15:17;5.57;;;5.27;;
5754;SDS011;2902;42.130;24.732;2023-03-01T03:17:46;5.40;;;5.10;;
5754;SDS011;2902;42.130;24.732;2023-03-01T03:20:14;5.53;;;5.20;;
5754;SDS011;2902;42.130;24.732;2023-03-01T03:22:45;5.50;;;5.20;;
5754;SDS011;2902;42.130;24.732;2023-03-01T03:25:12;4.70;;;4.50;;
5754;SDS011;2902;42.130;24.732;2023-03-01T03:27:39;4.53;;;4.33;;
5754;SDS011;2902;42.130;24.732;2023-03-01T03:30:07;4.23;;;4.03;;
5754;SDS011;2902;42.130;24.732;2023-03-01T03:32:37;4.67;;;4.40;;
5754;SDS011;2902;42.130;24.732;2023-03-01T03:35:07;4.13;;;3.93;;
5754;SDS011;2902;42.130;24.732;2023-03-01T03:37:36;4.27;;;4.07;;
5754;SDS011;2902;42.130;24.732;2023-03-01T03:40:20;4.80;;;4.57;;
5754;SDS011;2902;42.130;24.732;2023-03-01T03:48:38;4.90;;;4.70;;
5754;SDS011;2902;42.130;24.732;2023-03-01T03:51:09;4.53;;;4.33;;
5754;SDS011;2902;42.130;24.732;2023-03-01T03:53:37;4.50;;;4.30;;
5754;SDS011;2902;42.130;24.732;2023-03-01T03:56:04;4.50;;;4.30;;
5754;SDS011;2902;42.130;24.732;2023-03-01T03:58:31;4.67;;;4.47;;
5754;SDS011;2902;42.130;24.732;2023-03-01T04:00:58;4.37;;;4.17;;
5754;SDS011;2902;42.130;24.732;2023-03-01T04:03:26;4.50;;;4.30;;
5754;SDS011;2902;42.130;24.732;2023-03-01T04:05:54;6.10;;;5.70;;
5754;SDS011;2902;42.130;24.732;2023-03-01T04:08:22;6.10;;;5.80;;
5754;SDS011;2902;42.130;24.732;2023-03-01T04:10:50;4.80;;;4.60;;
5754;SDS011;2902;42.130;24.732;2023-03-01T04:13:18;4.80;;;4.60;;
5754;SDS011;2902;42.130;24.732;2023-03-01T04:15:47;5.23;;;5.03;;
5754;SDS011;2902;42.130;24.732;2023-03-01T04:18:15;5.40;;;5.00;;
5754;SDS011;2902;42.130;24.732;2023-03-01T04:20:43;6.40;;;5.80;;
5754;SDS011;2902;42.130;24.732;2023-03-01T04:23:11;7.03;;;6.63;;
5754;SDS011;2902;42.130;24.732;2023-03-01T04:25:42;6.87;;;6.47;;
5754;SDS011;2902;42.130;24.732;2023-03-01T04:28:14;8.77;;;8.13;;
5754;SDS011;2902;42.130;24.732;2023-03-01T04:30:41;8.43;;;7.93;;
5754;SDS011;2902;42.130;24.732;2023-03-01T04:33:08;8.00;;;7.50;;
5754;SDS011;2902;42.130;24.732;2023-03-01T04:35:36;8.57;;;7.97;;
5754;SDS011;2902;42.130;24.732;2023-03-01T04:38:03;7.50;;;6.97;;
5754;SDS011;2902;42.130;24.732;2023-03-01T04:40:31;8.07;;;7.57;;
5754;SDS011;2902;42.130;24.732;2023-03-01T04:42:59;7.97;;;7.57;;
5754;SDS011;2902;42.130;24.732;2023-03-01T04:45:27;8.53;;;7.10;;
5754;SDS011;2902;42.130;24.732;2023-03-01T04:47:54;7.43;;;6.97;;
5754;SDS011;2902;42.130;24.732;2023-03-01T04:50:23;7.00;;;6.50;;
5754;SDS011;2902;42.130;24.732;2023-03-01T04:52:51;6.93;;;6.43;;
5754;SDS011;2902;42.130;24.732;2023-03-01T04:55:18;6.47;;;5.97;;
5754;SDS011;2902;42.130;24.732;2023-03-01T04:57:45;5.50;;;5.20;;
5754;SDS011;2902;42.130;24.732;2023-03-01T05:00:14;6.97;;;6.50;;
5754;SDS011;2902;42.130;24.732;2023-03-01T05:02:48;6.93;;;6.43;;
5754;SDS011;2902;42.130;24.732;2023-03-01T05:05:18;5.20;;;4.90;;
5754;SDS011;2902;42.130;24.732;2023-03-01T05:07:46;6.10;;;5.70;;
5754;SDS011;2902;42.130;24.732;2023-03-01T05:10:13;5.40;;;5.10;;
5754;SDS011;2902;42.130;24.732;2023-03-01T05:12:40;5.23;;;4.93;;
5754;SDS011;2902;42.130;24.732;2023-03-01T05:15:07;5.53;;;5.23;;
5754;SDS011;2902;42.130;24.732;2023-03-01T05:17:35;5.90;;;5.50;;
5754;SDS011;2902;42.130;24.732;2023-03-01T05:20:02;5.60;;;5.33;;
5754;SDS011;2902;42.130;24.732;2023-03-01T05:22:32;7.57;;;7.17;;
5754;SDS011;2902;42.130;24.732;2023-03-01T05:24:59;9.83;;;8.77;;
5754;SDS011;2902;42.130;24.732;2023-03-01T05:27:26;13.47;;;11.87;;
5754;SDS011;2902;42.130;24.732;2023-03-01T05:29:54;13.37;;;12.17;;
5754;SDS011;2902;42.130;24.732;2023-03-01T05:32:21;16.17;;;13.33;;
5754;SDS011;2902;42.130;24.732;2023-03-01T05:34:49;17.40;;;15.67;;
5754;SDS011;2902;42.130;24.732;2023-03-01T05:37:17;19.63;;;14.53;;
5754;SDS011;2902;42.130;24.732;2023-03-01T05:39:44;13.77;;;12.37;;
5754;SDS011;2902;42.130;24.732;2023-03-01T05:42:11;16.83;;;13.73;;
5754;SDS011;2902;42.130;24.732;2023-03-01T05:44:38;15.37;;;13.10;;
5754;SDS011;2902;42.130;24.732;2023-03-01T05:47:05;17.50;;;15.70;;
5754;SDS011;2902;42.130;24.732;2023-03-01T05:49:32;11.77;;;10.57;;
5754;SDS011;2902;42.130;24.732;2023-03-01T05:52:01;20.17;;;14.23;;
5754;SDS011;2902;42.130;24.732;2023-03-01T05:54:27;10.23;;;9.43;;
5754;SDS011;2902;42.130;24.732;2023-03-01T05:56:54;50.47;;;23.63;;
5754;SDS011;2902;42.130;24.732;2023-03-01T05:59:21;35.27;;;19.57;;
5754;SDS011;2902;42.130;24.732;2023-03-01T06:01:48;12.60;;;11.57;;
5754;SDS011;2902;42.130;24.732;2023-03-01T06:04:15;13.57;;;12.30;;
5754;SDS011;2902;42.130;24.732;2023-03-01T06:06:41;11.77;;;10.77;;
5754;SDS011;2902;42.130;24.732;2023-03-01T06:09:09;15.70;;;14.20;;
5754;SDS011;2902;42.130;24.732;2023-03-01T06:11:36;13.83;;;12.90;;
5754;SDS011;2902;42.130;24.732;2023-03-01T06:14:03;14.30;;;13.27;;
5754;SDS011;2902;42.130;24.732;2023-03-01T06:16:32;16.33;;;14.83;;
5754;SDS011;2902;42.130;24.732;2023-03-01T06:18:59;11.73;;;10.73;;
5754;SDS011;2902;42.130;24.732;2023-03-01T06:21:26;11.40;;;10.43;;
5754;SDS011;2902;42.130;24.732;2023-03-01T06:23:53;10.67;;;9.83;;
5754;SDS011;2902;42.130;24.732;2023-03-01T06:26:21;9.60;;;9.00;;
5754;SDS011;2902;42.130;24.732;2023-03-01T06:28:47;8.60;;;7.97;;
5754;SDS011;2902;42.130;24.732;2023-03-01T06:31:14;10.20;;;9.30;;
5754;SDS011;2902;42.130;24.732;2023-03-01T06:33:41;9.47;;;8.87;;
5754;SDS011;2902;42.130;24.732;2023-03-01T06:36:09;9.53;;;8.87;;
5754;SDS011;2902;42.130;24.732;2023-03-01T06:38:36;11.00;;;9.97;;
5754;SDS011;2902;42.130;24.732;2023-03-01T06:41:03;11.63;;;10.73;;
5754;SDS011;2902;42.130;24.732;2023-03-01T06:43:31;9.60;;;9.00;;
5754;SDS011;2902;42.130;24.732;2023-03-01T06:45:58;7.33;;;6.73;;
5754;SDS011;2902;42.130;24.732;2023-03-01T06:48:25;9.37;;;8.73;;
5754;SDS011;2902;42.130;24.732;2023-03-01T06:50:52;6.73;;;6.17;;
5754;SDS011;2902;42.130;24.732;2023-03-01T06:53:20;6.20;;;5.90;;
5754;SDS011;2902;42.130;24.732;2023-03-01T06:55:46;6.03;;;5.63;;
5754;SDS011;2902;42.130;24.732;2023-03-01T06:58:13;6.23;;;5.87;;
5754;SDS011;2902;42.130;24.732;2023-03-01T07:00:41;6.03;;;5.63;;
5754;SDS011;2902;42.130;24.732;2023-03-01T07:03:08;6.20;;;5.80;;
5754;SDS011;2902;42.130;24.732;2023-03-01T07:05:35;5.23;;;4.77;;
5754;SDS011;2902;42.130;24.732;2023-03-01T07:08:02;6.20;;;5.90;;
5754;SDS011;2902;42.130;24.732;2023-03-01T07:10:28;4.73;;;4.43;;
5754;SDS011;2902;42.130;24.732;2023-03-01T07:12:55;6.87;;;6.50;;
5754;SDS011;2902;42.130;24.732;2023-03-01T07:15:22;6.77;;;6.23;;
5754;SDS011;2902;42.130;24.732;2023-03-01T07:17:50;8.17;;;7.70;;
5754;SDS011;2902;42.130;24.732;2023-03-01T07:20:17;9.30;;;8.70;;
5754;SDS011;2902;42.130;24.732;2023-03-01T07:22:47;7.10;;;6.70;;
5754;SDS011;2902;42.130;24.732;2023-03-01T07:25:14;11.77;;;10.67;;
5754;SDS011;2902;42.130;24.732;2023-03-01T07:27:40;11.57;;;10.60;;
5754;SDS011;2902;42.130;24.732;2023-03-01T07:30:08;15.03;;;12.77;;
5754;SDS011;2902;42.130;24.732;2023-03-01T07:32:35;18.20;;;12.93;;
5754;SDS011;2902;42.130;24.732;2023-03-01T07:35:04;31.37;;;19.10;;
5754;SDS011;2902;42.130;24.732;2023-03-01T07:37:31;19.13;;;13.97;;
5754;SDS011;2902;42.130;24.732;2023-03-01T07:39:58;42.23;;;24.63;;
5754;SDS011;2902;42.130;24.732;2023-03-01T07:42:24;14.77;;;12.33;;
5754;SDS011;2902;42.130;24.732;2023-03-01T07:44:51;8.40;;;7.27;;
5754;SDS011;2902;42.130;24.732;2023-03-01T07:47:18;26.03;;;23.23;;
5754;SDS011;2902;42.130;24.732;2023-03-01T07:49:45;11.47;;;10.43;;
5754;SDS011;2902;42.130;24.732;2023-03-01T07:52:13;5.70;;;5.40;;
5754;SDS011;2902;42.130;24.732;2023-03-01T07:54:42;6.93;;;6.63;;
5754;SDS011;2902;42.130;24.732;2023-03-01T07:57:09;4.17;;;3.93;;
5754;SDS011;2902;42.130;24.732;2023-03-01T07:59:36;4.57;;;4.37;;
5754;SDS011;2902;42.130;24.732;2023-03-01T08:02:02;4.50;;;4.20;;
5754;SDS011;2902;42.130;24.732;2023-03-01T08:04:29;4.63;;;4.33;;
5754;SDS011;2902;42.130;24.732;2023-03-01T08:06:56;4.23;;;4.03;;
5754;SDS011;2902;42.130;24.732;2023-03-01T08:09:24;4.93;;;4.50;;
5754;SDS011;2902;42.130;24.732;2023-03-01T08:11:52;3.47;;;3.27;;
5754;SDS011;2902;42.130;24.732;2023-03-01T08:14:19;3.40;;;3.27;;
5754;SDS011;2902;42.130;24.732;2023-03-01T08:16:48;3.90;;;3.50;;
5754;SDS011;2902;42.130;24.732;2023-03-01T08:19:15;3.53;;;3.33;;
5754;SDS011;2902;42.130;24.732;2023-03-01T08:21:43;9.80;;;5.80;;
5754;SDS011;2902;42.130;24.732;2023-03-01T08:24:09;4.20;;;3.90;;
5754;SDS011;2902;42.130;24.732;2023-03-01T08:26:37;4.73;;;3.13;;
5754;SDS011;2902;42.130;24.732;2023-03-01T08:29:04;10.33;;;8.23;;
5754;SDS011;2902;42.130;24.732;2023-03-01T08:31:31;4.23;;;3.93;;
5754;SDS011;2902;42.130;24.732;2023-03-01T08:34:01;3.60;;;3.40;;
5754;SDS011;2902;42.130;24.732;2023-03-01T08:36:30;3.60;;;3.40;;
5754;SDS011;2902;42.130;24.732;2023-03-01T08:38:57;3.50;;;3.30;;
5754;SDS011;2902;42.130;24.732;2023-03-01T08:41:25;4.80;;;4.40;;
5754;SDS011;2902;42.130;24.732;2023-03-01T08:43:54;3.87;;;3.67;;
5754;SDS011;2902;42.130;24.732;2023-03-01T08:46:24;4.17;;;3.87;;
5754;SDS011;2902;42.130;24.732;2023-03-01T08:48:51;3.93;;;3.73;;
5754;SDS011;2902;42.130;24.732;2023-03-01T08:51:18;4.63;;;4.23;;
5754;SDS011;2902;42.130;24.732;2023-03-01T08:53:46;4.53;;;4.23;;
5754;SDS011;2902;42.130;24.732;2023-03-01T08:56:13;9.37;;;8.67;;
5754;SDS011;2902;42.130;24.732;2023-03-01T08:58:43;6.93;;;6.53;;
5754;SDS011;2902;42.130;24.732;2023-03-01T09:01:12;5.70;;;5.30;;
5754;SDS011;2902;42.130;24.732;2023-03-01T09:03:40;4.67;;;4.27;;
5754;SDS011;2902;42.130;24.732;2023-03-01T09:06:07;5.07;;;4.77;;
5754;SDS011;2902;42.130;24.732;2023-03-01T09:08:34;5.07;;;4.63;;
5754;SDS011;2902;42.130;24.732;2023-03-01T09:11:02;3.80;;;3.50;;
5754;SDS011;2902;42.130;24.732;2023-03-01T09:13:29;4.90;;;4.60;;
5754;SDS011;2902;42.130;24.732;2023-03-01T09:15:57;4.33;;;4.03;;
5754;SDS011;2902;42.130;24.732;2023-03-01T09:18:25;18.60;;;10.93;;
5754;SDS011;2902;42.130;24.732;2023-03-01T09:20:52;3.93;;;3.63;;
5754;SDS011;2902;42.130;24.732;2023-03-01T09:23:21;3.80;;;3.00;;
5754;SDS011;2902;42.130;24.732;2023-03-01T09:25:47;3.43;;;3.33;;
5754;SDS011;2902;42.130;24.732;2023-03-01T09:28:14;3.83;;;3.63;;
5754;SDS011;2902;42.130;24.732;2023-03-01T09:30:41;3.57;;;3.37;;
5754;SDS011;2902;42.130;24.732;2023-03-01T09:33:07;3.70;;;3.40;;
5754;SDS011;2902;42.130;24.732;2023-03-01T09:35:41;2.97;;;2.77;;
5754;SDS011;2902;42.130;24.732;2023-03-01T09:38:11;3.63;;;3.43;;
5754;SDS011;2902;42.130;24.732;2023-03-01T09:40:41;4.07;;;3.87;;
5754;SDS011;2902;42.130;24.732;2023-03-01T09:43:15;3.80;;;3.50;;
5754;SDS011;2902;42.130;24.732;2023-03-01T09:45:49;4.10;;;3.83;;
5754;SDS011;2902;42.130;24.732;2023-03-01T09:48:21;5.77;;;5.27;;
5754;SDS011;2902;42.130;24.732;2023-03-01T09:50:51;6.83;;;6.27;;
5754;SDS011;2902;42.130;24.732;2023-03-01T09:53:19;5.97;;;5.47;;
5754;SDS011;2902;42.130;24.732;2023-03-01T09:55:48;5.23;;;4.93;;
5754;SDS011;2902;42.130;24.732;2023-03-01T09:58:31;5.13;;;4.83;;
5754;SDS011;2902;42.130;24.732;2023-03-01T10:01:10;4.97;;;4.50;;
5754;SDS011;2902;42.130;24.732;2023-03-01T10:03:55;5.10;;;4.77;;
5754;SDS011;2902;42.130;24.732;2023-03-01T10:06:31;13.60;;;12.70;;
5754;SDS011;2902;42.130;24.732;2023-03-01T10:08:58;4.33;;;4.13;;
5754;SDS011;2902;42.130;24.732;2023-03-01T10:11:30;3.87;;;3.67;;
5754;SDS011;2902;42.130;24.732;2023-03-01T10:13:59;3.67;;;3.50;;
5754;SDS011;2902;42.130;24.732;2023-03-01T10:16:34;3.80;;;3.60;;
5754;SDS011;2902;42.130;24.732;2023-03-01T10:19:09;4.73;;;4.43;;
5754;SDS011;2902;42.130;24.732;2023-03-01T10:21:51;3.27;;;3.07;;
5754;SDS011;2902;42.130;24.732;2023-03-01T10:24:19;2.80;;;2.60;;
5754;SDS011;2902;42.130;24.732;2023-03-01T10:26:52;3.17;;;2.97;;
5754;SDS011;2902;42.130;24.732;2023-03-01T10:29:22;3.43;;;3.13;;
5754;SDS011;2902;42.130;24.732;2023-03-01T10:31:52;4.73;;;3.80;;
5754;SDS011;2902;42.130;24.732;2023-03-01T10:34:21;5.03;;;4.83;;
5754;SDS011;2902;42.130;24.732;2023-03-01T10:36:56;4.33;;;4.13;;
5754;SDS011;2902;42.130;24.732;2023-03-01T10:39:27;5.37;;;5.07;;
5754;SDS011;2902;42.130;24.732;2023-03-01T10:41:55;5.60;;;5.30;;
5754;SDS011;2902;42.130;24.732;2023-03-01T10:44:36;4.70;;;4.40;;
5754;SDS011;2902;42.130;24.732;2023-03-01T10:47:05;5.67;;;5.27;;
5754;SDS011;2902;42.130;24.732;2023-03-01T10:49:38;4.90;;;4.27;;
5754;SDS011;2902;42.130;24.732;2023-03-01T10:52:19;4.60;;;4.30;;
5754;SDS011;2902;42.130;24.732;2023-03-01T10:54:51;4.17;;;3.97;;
5754;SDS011;2902;42.130;24.732;2023-03-01T10:57:28;4.33;;;4.03;;
5754;SDS011;2902;42.130;24.732;2023-03-01T11:00:20;7.90;;;7.10;;
5754;SDS011;2902;42.130;24.732;2023-03-01T11:03:01;5.33;;;4.83;;
5754;SDS011;2902;42.130;24.732;2023-03-01T11:05:35;6.57;;;5.97;;
5754;SDS011;2902;42.130;24.732;2023-03-01T11:08:03;6.73;;;5.20;;
5754;SDS011;2902;42.130;24.732;2023-03-01T11:10:30;11.30;;;7.80;;
5754;SDS011;2902;42.130;24.732;2023-03-01T11:13:13;6.77;;;6.07;;
5754;SDS011;2902;42.130;24.732;2023-03-01T11:15:42;9.73;;;8.83;;
5754;SDS011;2902;42.130;24.732;2023-03-01T11:18:24;8.57;;;7.87;;
5754;SDS011;2902;42.130;24.732;2023-03-01T11:20:52;7.13;;;6.73;;
5754;SDS011;2902;42.130;24.732;2023-03-01T11:23:22;7.20;;;6.80;;
5754;SDS011;2902;42.130;24.732;2023-03-01T11:25:51;7.87;;;7.43;;
5754;SDS011;2902;42.130;24.732;2023-03-01T11:28:22;4.60;;;4.40;;
5754;SDS011;2902;42.130;24.732;2023-03-01T11:30:51;5.30;;;4.90;;
5754;SDS011;2902;42.130;24.732;2023-03-01T11:33:24;3.53;;;3.33;;
5754;SDS011;2902;42.130;24.732;2023-03-01T11:36:01;4.20;;;4.00;;
5754;SDS011;2902;42.130;24.732;2023-03-01T11:38:35;4.87;;;4.57;;
5754;SDS011;2902;42.130;24.732;2023-03-01T11:41:04;5.03;;;4.63;;
5754;SDS011;2902;42.130;24.732;2023-03-01T11:43:36;6.20;;;5.60;;
5754;SDS011;2902;42.130;24.732;2023-03-01T11:49:30;9.33;;;8.03;;
5754;SDS011;2902;42.130;24.732;2023-03-01T11:52:13;8.93;;;6.50;;
5754;SDS011;2902;42.130;24.732;2023-03-01T11:54:54;9.40;;;8.70;;
5754;SDS011;2902;42.130;24.732;2023-03-01T11:57:35;11.20;;;9.93;;
5754;SDS011;2902;42.130;24.732;2023-03-01T12:09:14;14.27;;;7.67;;
5754;SDS011;2902;42.130;24.732;2023-03-01T12:11:55;8.43;;;7.57;;
5754;SDS011;2902;42.130;24.732;2023-03-01T12:14:47;7.03;;;5.60;;
5754;SDS011;2902;42.130;24.732;2023-03-01T12:17:25;4.73;;;4.43;;
5754;SDS011;2902;42.130;24.732;2023-03-01T12:20:06;5.97;;;5.57;;
5754;SDS011;2902;42.130;24.732;2023-03-01T12:22:46;5.30;;;4.90;;
5754;SDS011;2902;42.130;24.732;2023-03-01T12:25:25;4.43;;;4.23;;
5754;SDS011;2902;42.130;24.732;2023-03-01T12:28:04;4.47;;;4.17;;
5754;SDS011;2902;42.130;24.732;2023-03-01T12:30:54;5.10;;;4.70;;
5754;SDS011;2902;42.130;24.732;2023-03-01T12:33:44;5.53;;;5.23;;
5754;SDS011;2902;42.130;24.732;2023-03-01T12:36:26;4.80;;;4.60;;
5754;SDS011;2902;42.130;24.732;2023-03-01T12:39:10;5.57;;;5.23;;
5754;SDS011;2902;42.130;24.732;2023-03-01T12:41:50;6.50;;;6.00;;
5754;SDS011;2902;42.130;24.732;2023-03-01T12:44:35;4.53;;;4.20;;
5754;SDS011;2902;42.130;24.732;2023-03-01T12:47:17;4.40;;;4.20;;
5754;SDS011;2902;42.130;24.732;2023-03-01T12:49:54;4.47;;;4.07;;
5754;SDS011;2902;42.130;24.732;2023-03-01T12:52:26;4.10;;;3.80;;
5754;SDS011;2902;42.130;24.732;2023-03-01T12:54:58;3.83;;;3.63;;
5754;SDS011;2902;42.130;24.732;2023-03-01T12:57:29;3.47;;;3.27;;
5754;SDS011;2902;42.130;24.732;2023-03-01T13:00:06;3.50;;;3.30;;
5754;SDS011;2902;42.130;24.732;2023-03-01T13:02:49;3.10;;;2.90;;
5754;SDS011;2902;42.130;24.732;2023-03-01T13:05:25;3.53;;;3.33;;
5754;SDS011;2902;42.130;24.732;2023-03-01T13:08:05;3.83;;;3.00;;
5754;SDS011;2902;42.130;24.732;2023-03-01T13:10:40;3.80;;;3.50;;
5754;SDS011;2902;42.130;24.732;2023-03-01T13:13:14;3.00;;;2.83;;
5754;SDS011;2902;42.130;24.732;2023-03-01T13:15:47;6.43;;;3.50;;
5754;SDS011;2902;42.130;24.732;2023-03-01T13:18:32;4.30;;;4.10;;
5754;SDS011;2902;42.130;24.732;2023-03-01T13:21:00;5.87;;;5.37;;
5754;SDS011;2902;42.130;24.732;2023-03-01T13:23:30;7.20;;;6.50;;
5754;SDS011;2902;42.130;24.732;2023-03-01T13:26:09;6.20;;;5.80;;
5754;SDS011;2902;42.130;24.732;2023-03-01T13:34:46;6.90;;;5.07;;
5754;SDS011;2902;42.130;24.732;2023-03-01T13:37:21;3.90;;;3.50;;
5754;SDS011;2902;42.130;24.732;2023-03-01T13:39:55;5.93;;;5.50;;
5754;SDS011;2902;42.130;24.732;2023-03-01T13:42:37;4.30;;;4.10;;
5754;SDS011;2902;42.130;24.732;2023-03-01T13:45:14;5.53;;;5.13;;
5754;SDS011;2902;42.130;24.732;2023-03-01T13:47:47;7.27;;;6.77;;
5754;SDS011;2902;42.130;24.732;2023-03-01T13:50:18;7.47;;;6.80;;
5754;SDS011;2902;42.130;24.732;2023-03-01T13:52:53;6.73;;;6.23;;
5754;SDS011;2902;42.130;24.732;2023-03-01T13:55:24;5.57;;;5.20;;
5754;SDS011;2902;42.130;24.732;2023-03-01T13:57:57;4.87;;;4.57;;
5754;SDS011;2902;42.130;24.732;2023-03-01T14:00:35;3.97;;;3.77;;
5754;SDS011;2902;42.130;24.732;2023-03-01T14:03:10;7.80;;;6.20;;
5754;SDS011;2902;42.130;24.732;2023-03-01T14:05:40;6.10;;;5.70;;
5754;SDS011;2902;42.130;24.732;2023-03-01T14:08:21;6.00;;;5.60;;
5754;SDS011;2902;42.130;24.732;2023-03-01T14:10:54;7.50;;;6.77;;
5754;SDS011;2902;42.130;24.732;2023-03-01T14:13:38;9.53;;;8.73;;
5754;SDS011;2902;42.130;24.732;2023-03-01T14:16:20;10.77;;;9.67;;
5754;SDS011;2902;42.130;24.732;2023-03-01T14:18:57;10.27;;;9.27;;
5754;SDS011;2902;42.130;24.732;2023-03-01T14:21:37;9.90;;;9.13;;
5754;SDS011;2902;42.130;24.732;2023-03-01T14:24:04;10.30;;;9.33;;
5754;SDS011;2902;42.130;24.732;2023-03-01T14:26:31;15.90;;;10.63;;
5754;SDS011;2902;42.130;24.732;2023-03-01T14:29:01;13.73;;;12.33;;
5754;SDS011;2902;42.130;24.732;2023-03-01T14:31:32;14.03;;;12.80;;
5754;SDS011;2902;42.130;24.732;2023-03-01T14:34:04;15.43;;;14.00;;
5754;SDS011;2902;42.130;24.732;2023-03-01T14:36:32;12.37;;;11.37;;
5754;SDS011;2902;42.130;24.732;2023-03-01T14:39:00;9.33;;;8.63;;
5754;SDS011;2902;42.130;24.732;2023-03-01T14:41:31;10.70;;;9.90;;
5754;SDS011;2902;42.130;24.732;2023-03-01T14:44:02;9.90;;;8.90;;
5754;SDS011;2902;42.130;24.732;2023-03-01T14:46:33;9.97;;;9.07;;
5754;SDS011;2902;42.130;24.732;2023-03-01T14:49:04;13.67;;;9.23;;
5754;SDS011;2902;42.130;24.732;2023-03-01T14:51:35;9.43;;;8.83;;
5754;SDS011;2902;42.130;24.732;2023-03-01T14:54:04;9.27;;;8.57;;
5754;SDS011;2902;42.130;24.732;2023-03-01T14:56:44;8.47;;;7.80;;
5754;SDS011;2902;42.130;24.732;2023-03-01T14:59:11;10.60;;;9.70;;
5754;SDS011;2902;42.130;24.732;2023-03-01T15:01:39;8.63;;;8.13;;
5754;SDS011;2902;42.130;24.732;2023-03-01T15:04:10;8.87;;;8.23;;
5754;SDS011;2902;42.130;24.732;2023-03-01T15:06:39;9.27;;;8.23;;
5754;SDS011;2902;42.130;24.732;2023-03-01T15:09:06;8.70;;;8.10;;
5754;SDS011;2902;42.130;24.732;2023-03-01T15:11:38;11.20;;;10.27;;
5754;SDS011;2902;42.130;24.732;2023-03-01T15:16:54;12.20;;;10.90;;
5754;SDS011;2902;42.130;24.732;2023-03-01T15:19:23;16.57;;;11.70;;
5754;SDS011;2902;42.130;24.732;2023-03-01T15:21:54;13.53;;;12.33;;
5754;SDS011;2902;42.130;24.732;2023-03-01T15:24:24;14.13;;;12.77;;
5754;SDS011;2902;42.130;24.732;2023-03-01T15:26:53;11.30;;;10.20;;
5754;SDS011;2902;42.130;24.732;2023-03-01T15:29:27;5.77;;;5.23;;
5754;SDS011;2902;42.130;24.732;2023-03-01T15:31:56;6.50;;;6.10;;
5754;SDS011;2902;42.130;24.732;2023-03-01T15:34:27;8.47;;;7.57;;
5754;SDS011;2902;42.130;24.732;2023-03-01T15:36:57;8.37;;;7.20;;
5754;SDS011;2902;42.130;24.732;2023-03-01T15:39:27;4.87;;;4.57;;
5754;SDS011;2902;42.130;24.732;2023-03-01T15:42:02;4.83;;;4.30;;
5754;SDS011;2902;42.130;24.732;2023-03-01T15:44:31;5.20;;;4.70;;